Time;durP1;ratioP1;P1;durP2;ratioP2;P2;SDS_P1;SDS_P2;PMS_P1;PMS_P2;Temp;Humidity;BMP_temperature;BMP_pressure;BME280_temperature;BME280_humidity;BME280_pressure;Samples;Min_cycle;Max_cycle;Signal;HPM_P1;HPM_P2
2021/12/25 00:00:11;;;;;;;11.70;2.70;;;;;;;;;;4996080;28;20285;-65
2021/12/25 00:02:38;;;;;;;14.77;3.17;;;;;;;;;;5013211;28;20050;-66
2021/12/25 00:05:04;;;;;;;;;;;;;;;;;;5012689;28;20042;-66
2021/12/25 00:07:30;;;;;;;9.47;2.50;;;;;;;;;;5010499;28;20028;-66
2021/12/25 00:09:57;;;;;;;11.73;2.72;;;;;;;;;;4994564;28;20529;-67
2021/12/25 00:12:24;;;;;;;11.00;3.07;;;;;;;;;;4992974;28;20077;-66
2021/12/25 00:14:50;;;;;;;10.63;2.58;;;;;;;;;;4975883;28;20041;-67
2021/12/25 00:17:16;;;;;;;12.27;2.50;;;;;;;;;;5012277;28;20042;-66
2021/12/25 00:19:43;;;;;;;10.70;2.90;;;;;;;;;;5012290;28;20045;-66
2021/12/25 00:22:09;;;;;;;13.10;2.60;;;;;;;;;;5011908;28;20093;-68
2021/12/25 00:24:41;;;;;;;11.02;3.20;;;;;;;;;;5010220;28;20084;-66
2021/12/25 00:27:23;;;;;;;11.77;3.00;;;;;;;;;;5008893;28;20050;-67
2021/12/25 00:29:56;;;;;;;13.43;3.00;;;;;;;;;;5012163;28;20053;-67
2021/12/25 00:34:49;;;;;;;10.07;2.40;;;;;;;;;;5010098;28;20133;-66
2021/12/25 00:37:16;;;;;;;10.23;3.20;;;;;;;;;;5011077;28;20050;-66
2021/12/25 00:39:43;;;;;;;9.77;2.83;;;;;;;;;;5002887;28;20133;-66
2021/12/25 00:42:12;;;;;;;11.30;2.80;;;;;;;;;;4975240;28;20050;-65
2021/12/25 00:44:38;;;;;;;12.85;2.83;;;;;;;;;;4993640;28;20052;-67
2021/12/25 00:47:05;;;;;;;9.65;2.72;;;;;;;;;;4992831;28;20510;-64
2021/12/25 00:49:32;;;;;;;8.70;2.77;;;;;;;;;;4998096;28;20053;-67
2021/12/25 00:51:58;;;;;;;;;;;;;;;;;;4974875;28;20056;-67
2021/12/25 00:54:24;;;;;;;9.33;2.60;;;;;;;;;;4990724;28;19922;-65
2021/12/25 00:56:50;;;;;;;8.88;2.10;;;;;;;;;;4973435;28;20042;-66
2021/12/25 00:59:17;;;;;;;8.35;2.50;;;;;;;;;;5004259;28;20073;-66
2021/12/25 01:01:43;;;;;;;;;;;;;;;;;;5010669;28;20493;-67
2021/12/25 01:04:09;;;;;;;8.30;2.33;;;;;;;;;;5012160;28;19922;-66
2021/12/25 01:06:35;;;;;;;8.57;2.10;;;;;;;;;;5015652;28;20405;-66
2021/12/25 01:09:01;;;;;;;9.38;2.60;;;;;;;;;;5014673;28;20195;-66
2021/12/25 01:11:29;;;;;;;8.25;2.25;;;;;;;;;;5014748;28;20081;-66
2021/12/25 01:14:03;;;;;;;9.10;2.20;;;;;;;;;;5014771;28;20054;-66
2021/12/25 01:19:38;;;;;;;9.50;2.40;;;;;;;;;;4994952;28;20055;-66
2021/12/25 01:22:41;;;;;;;7.67;2.13;;;;;;;;;;4979805;28;20120;-65
2021/12/25 01:25:26;;;;;;;10.20;2.50;;;;;;;;;;5004080;28;20049;-66
2021/12/25 01:40:56;;;;;;;6.45;2.10;;;;;;;;;;5013956;28;20549;-67
2021/12/25 01:48:52;;;;;;;6.20;2.10;;;;;;;;;;5014740;28;20057;-65
2021/12/25 01:51:18;;;;;;;6.93;2.20;;;;;;;;;;5013186;28;20054;-65
2021/12/25 01:53:44;;;;;;;8.23;2.28;;;;;;;;;;4980082;28;20053;-66
2021/12/25 01:56:10;;;;;;;6.97;2.08;;;;;;;;;;5013889;28;20045;-65
2021/12/25 01:58:37;;;;;;;6.00;1.95;;;;;;;;;;5014604;28;20046;-66
2021/12/25 02:01:04;;;;;;;6.43;2.10;;;;;;;;;;5012457;28;20049;-66
2021/12/25 02:03:31;;;;;;;11.00;2.30;;;;;;;;;;5013973;28;20042;-65
2021/12/25 02:06:00;;;;;;;5.97;2.00;;;;;;;;;;4994217;28;20057;-66
2021/12/25 02:08:27;;;;;;;6.23;1.80;;;;;;;;;;4996932;28;20060;-64
2021/12/25 02:10:53;;;;;;;5.37;2.00;;;;;;;;;;5013829;28;20053;-66
2021/12/25 02:13:19;;;;;;;6.25;1.92;;;;;;;;;;4995088;28;20099;-66
2021/12/25 02:15:49;;;;;;;7.43;2.03;;;;;;;;;;5004323;28;20042;-65
2021/12/25 02:21:00;;;;;;;7.95;2.20;;;;;;;;;;5014409;28;20053;-66
2021/12/25 02:23:26;;;;;;;6.70;2.17;;;;;;;;;;4999301;28;20082;-65
2021/12/25 02:25:54;;;;;;;;;;;;;;;;;;5008768;28;20495;-65
2021/12/25 02:28:20;;;;;;;6.38;1.92;;;;;;;;;;5000766;28;19929;-66
2021/12/25 02:30:46;;;;;;;;;;;;;;;;;;4995016;28;20058;-68
2021/12/25 02:33:12;;;;;;;4.70;2.00;;;;;;;;;;4994050;28;19921;-65
2021/12/25 02:35:38;;;;;;;;;;;;;;;;;;4994225;28;20061;-66
2021/12/25 02:38:05;;;;;;;7.97;2.53;;;;;;;;;;4999972;28;20266;-66
2021/12/25 02:40:32;;;;;;;6.13;2.27;;;;;;;;;;5013038;28;20133;-64
2021/12/25 02:42:58;;;;;;;6.20;1.80;;;;;;;;;;5013281;28;20065;-66
2021/12/25 02:45:24;;;;;;;7.28;2.33;;;;;;;;;;4994288;28;20486;-67
2021/12/25 02:47:50;;;;;;;;;;;;;;;;;;5013414;28;20052;-65
2021/12/25 02:50:31;;;;;;;5.97;1.73;;;;;;;;;;4994302;28;20012;-68
2021/12/25 02:52:59;;;;;;;6.13;2.00;;;;;;;;;;4994099;28;20056;-65
2021/12/25 02:55:26;;;;;;;4.13;1.60;;;;;;;;;;5012211;28;20108;-67
2021/12/25 02:57:52;;;;;;;4.87;1.90;;;;;;;;;;5011979;28;20081;-66
2021/12/25 03:00:23;;;;;;;6.57;1.90;;;;;;;;;;4996420;28;20042;-65
2021/12/25 03:02:49;;;;;;;7.33;1.87;;;;;;;;;;5008669;28;20432;-65
2021/12/25 03:05:16;;;;;;;6.07;1.80;;;;;;;;;;5011712;28;20042;-65
2021/12/25 03:07:42;;;;;;;8.73;2.20;;;;;;;;;;5012347;28;20050;-66
2021/12/25 03:10:08;;;;;;;;;;;;;;;;;;5012604;28;20045;-67
2021/12/25 03:12:46;;;;;;;3.57;1.70;;;;;;;;;;4993009;28;20024;-66
2021/12/25 03:15:16;;;;;;;4.77;1.80;;;;;;;;;;4978247;28;20077;-65
2021/12/25 03:17:43;;;;;;;6.63;1.90;;;;;;;;;;4996148;28;20090;-67
2021/12/25 03:20:10;;;;;;;6.33;1.90;;;;;;;;;;5011282;28;20084;-67
2021/12/25 03:22:37;;;;;;;5.57;2.07;;;;;;;;;;4995963;28;20051;-65
2021/12/25 03:25:05;;;;;;;3.33;1.60;;;;;;;;;;4993765;28;20129;-65
2021/12/25 03:27:33;;;;;;;7.10;2.30;;;;;;;;;;5009545;28;20103;-68
2021/12/25 03:30:00;;;;;;;4.53;1.87;;;;;;;;;;5012412;28;20155;-67
2021/12/25 03:32:26;;;;;;;3.13;1.80;;;;;;;;;;4992099;28;20061;-65
2021/12/25 03:34:52;;;;;;;5.72;1.73;;;;;;;;;;4992303;28;20125;-65
2021/12/25 03:37:18;;;;;;;6.40;2.00;;;;;;;;;;4997369;28;20111;-65
2021/12/25 03:39:44;;;;;;;5.78;1.73;;;;;;;;;;5006629;28;20061;-66
2021/12/25 03:42:10;;;;;;;5.32;1.90;;;;;;;;;;5011835;28;20076;-65
2021/12/25 03:44:36;;;;;;;4.10;1.80;;;;;;;;;;4980807;28;20466;-65
2021/12/25 03:47:14;;;;;;;5.63;1.90;;;;;;;;;;4990227;28;20531;-65
2021/12/25 03:57:58;;;;;;;7.50;2.13;;;;;;;;;;4997310;28;20108;-64
2021/12/25 04:00:29;;;;;;;7.20;2.13;;;;;;;;;;4997913;28;20046;-64
2021/12/25 04:03:00;;;;;;;4.90;1.87;;;;;;;;;;4993785;28;20050;-64
2021/12/25 04:05:32;;;;;;;4.70;1.80;;;;;;;;;;5010737;28;20124;-65
2021/12/25 04:08:07;;;;;;;7.83;2.00;;;;;;;;;;5010979;28;20053;-64
2021/12/25 04:10:36;;;;;;;8.17;2.00;;;;;;;;;;4992873;28;20069;-64
2021/12/25 04:13:07;;;;;;;6.63;1.87;;;;;;;;;;4990821;28;20066;-64
2021/12/25 04:15:33;;;;;;;5.40;1.90;;;;;;;;;;5006589;28;20455;-64
2021/12/25 04:17:59;;;;;;;6.40;1.95;;;;;;;;;;5009716;28;20379;-65
2021/12/25 04:20:25;;;;;;;6.80;1.80;;;;;;;;;;4997890;28;20492;-64
2021/12/25 04:22:58;;;;;;;6.45;1.80;;;;;;;;;;5009857;28;20050;-65
2021/12/25 04:25:28;;;;;;;5.53;1.80;;;;;;;;;;4995732;28;20042;-62
2021/12/25 04:27:58;;;;;;;10.13;2.30;;;;;;;;;;4991422;28;20046;-62
2021/12/25 04:31:24;;;;;;;5.23;1.90;;;;;;;;;;4982608;28;20054;-64
2021/12/25 05:03:30;;;;;;;6.57;2.10;;;;;;;;;;5009814;28;20088;-62
2021/12/25 05:05:56;;;;;;;6.17;1.87;;;;;;;;;;4996568;28;20058;-63
2021/12/25 05:08:22;;;;;;;;;;;;;;;;;;4991807;28;20228;-63
2021/12/25 05:10:48;;;;;;;6.70;1.83;;;;;;;;;;5007663;28;19948;-64
2021/12/25 05:13:14;;;;;;;4.72;1.85;;;;;;;;;;4992263;28;20046;-62
2021/12/25 05:15:42;;;;;;;6.18;1.80;;;;;;;;;;5008941;28;20038;-62
2021/12/25 05:18:08;;;;;;;5.10;1.73;;;;;;;;;;5009838;28;20058;-63
2021/12/25 05:20:34;;;;;;;6.53;1.95;;;;;;;;;;5003289;28;20042;-63
2021/12/25 05:23:00;;;;;;;6.57;2.13;;;;;;;;;;4992244;28;20042;-63
2021/12/25 05:25:26;;;;;;;6.75;1.80;;;;;;;;;;5002181;28;20261;-62
2021/12/25 05:27:52;;;;;;;6.30;2.10;;;;;;;;;;5004851;28;20054;-62
2021/12/25 05:30:18;;;;;;;4.75;1.90;;;;;;;;;;4994219;28;20125;-62
2021/12/25 05:32:45;;;;;;;6.10;1.95;;;;;;;;;;5008333;28;20042;-62
2021/12/25 05:35:11;;;;;;;5.53;1.90;;;;;;;;;;4999137;28;20045;-63
2021/12/25 05:37:37;;;;;;;7.55;2.22;;;;;;;;;;5008223;28;20381;-63
2021/12/25 05:40:04;;;;;;;6.80;2.15;;;;;;;;;;5006784;28;20077;-62
2021/12/25 05:42:31;;;;;;;9.03;2.50;;;;;;;;;;4988442;28;20077;-63
2021/12/25 05:44:58;;;;;;;8.60;2.10;;;;;;;;;;5007877;28;20046;-62
2021/12/25 05:47:24;;;;;;;9.50;2.40;;;;;;;;;;4996116;28;20466;-62
2021/12/25 05:49:50;;;;;;;7.82;2.20;;;;;;;;;;5009592;28;20064;-63
2021/12/25 05:52:16;;;;;;;8.57;2.22;;;;;;;;;;4996129;28;20078;-62
2021/12/25 05:54:42;;;;;;;5.80;2.00;;;;;;;;;;4992218;28;20042;-63
2021/12/25 05:57:09;;;;;;;9.05;2.90;;;;;;;;;;5008390;28;20065;-62
2021/12/25 05:59:35;;;;;;;12.93;3.50;;;;;;;;;;4993260;28;20053;-62
2021/12/25 06:02:01;;;;;;;8.13;2.05;;;;;;;;;;5006277;28;20116;-62
2021/12/25 06:04:27;;;;;;;4.22;1.80;;;;;;;;;;5005291;28;20058;-62
2021/12/25 06:06:53;;;;;;;5.88;2.30;;;;;;;;;;4998058;28;20125;-61
2021/12/25 06:09:19;;;;;;;8.20;2.20;;;;;;;;;;4992721;28;20466;-61
2021/12/25 06:11:45;;;;;;;6.47;1.90;;;;;;;;;;5002473;28;20053;-61
2021/12/25 06:14:18;;;;;;;6.55;2.08;;;;;;;;;;4993221;28;20053;-62
2021/12/25 06:16:44;;;;;;;8.00;2.10;;;;;;;;;;4977880;28;20104;-62
2021/12/25 06:19:10;;;;;;;;;;;;;;;;;;5011908;28;20046;-62
2021/12/25 06:21:38;;;;;;;6.65;1.90;;;;;;;;;;4999440;28;19921;-63
2021/12/25 06:24:05;;;;;;;5.78;1.90;;;;;;;;;;5011202;28;20130;-62
2021/12/25 06:26:31;;;;;;;7.70;2.10;;;;;;;;;;5011171;28;20073;-63
2021/12/25 06:28:58;;;;;;;4.53;1.80;;;;;;;;;;5010466;28;20038;-63
2021/12/25 06:31:24;;;;;;;;;;;;;;;;;;5004094;28;20115;-62
2021/12/25 06:33:50;;;;;;;8.23;2.00;;;;;;;;;;5011225;28;19925;-63
2021/12/25 06:36:16;;;;;;;6.43;2.08;;;;;;;;;;5008051;28;20121;-62
2021/12/25 06:38:42;;;;;;;8.05;2.10;;;;;;;;;;4991431;28;20430;-63
2021/12/25 06:41:10;;;;;;;5.80;2.00;;;;;;;;;;5008909;28;20076;-62
2021/12/25 06:43:36;;;;;;;5.23;1.80;;;;;;;;;;5011552;28;20156;-63
2021/12/25 06:46:03;;;;;;;5.95;1.80;;;;;;;;;;5010460;28;20084;-62
2021/12/25 06:48:29;;;;;;;;;;;;;;;;;;4990805;28;20081;-62
2021/12/25 06:50:55;;;;;;;7.97;2.00;;;;;;;;;;4992216;28;19933;-62
2021/12/25 06:53:21;;;;;;;5.78;2.15;;;;;;;;;;4993581;28;20470;-62
2021/12/25 06:55:47;;;;;;;5.85;1.90;;;;;;;;;;4991515;28;20050;-62
2021/12/25 06:58:13;;;;;;;8.57;2.00;;;;;;;;;;5009044;28;20469;-63
2021/12/25 07:00:40;;;;;;;5.40;1.80;;;;;;;;;;5010592;28;20368;-63
2021/12/25 07:03:05;;;;;;;;;;;;;;;;;;5010005;28;20046;-62
2021/12/25 07:05:32;;;;;;;10.27;2.10;;;;;;;;;;4992998;28;19922;-63
2021/12/25 07:07:58;;;;;;;6.80;2.10;;;;;;;;;;5004187;28;20077;-62
2021/12/25 07:10:25;;;;;;;7.53;2.13;;;;;;;;;;4994006;28;20422;-63
2021/12/25 07:12:53;;;;;;;6.63;2.10;;;;;;;;;;4981299;28;20404;-62
2021/12/25 07:15:20;;;;;;;7.17;2.30;;;;;;;;;;4992950;28;20140;-62
2021/12/25 07:17:46;;;;;;;;;;;;;;;;;;5001576;28;20484;-63
2021/12/25 07:20:12;;;;;;;6.20;2.07;;;;;;;;;;5011096;28;20008;-62
2021/12/25 07:22:38;;;;;;;8.40;2.23;;;;;;;;;;5003031;28;20110;-62
2021/12/25 07:25:05;;;;;;;7.32;1.98;;;;;;;;;;4990930;28;20403;-62
2021/12/25 07:27:31;;;;;;;8.40;2.20;;;;;;;;;;4997645;28;20445;-62
2021/12/25 07:29:57;;;;;;;8.40;2.38;;;;;;;;;;5010163;28;20425;-62
2021/12/25 07:32:24;;;;;;;3.95;1.90;;;;;;;;;;5010507;28;20122;-63
2021/12/25 07:34:51;;;;;;;13.50;2.30;;;;;;;;;;5001170;28;20100;-62
2021/12/25 07:37:17;;;;;;;9.17;2.30;;;;;;;;;;4992393;28;20046;-62
2021/12/25 07:39:44;;;;;;;6.87;2.30;;;;;;;;;;4984865;28;20510;-64
2021/12/25 07:42:09;;;;;;;;;;;;;;;;;;4998915;28;20136;-62
2021/12/25 07:44:36;;;;;;;8.67;2.20;;;;;;;;;;5008931;28;20016;-62
2021/12/25 07:47:04;;;;;;;6.88;2.30;;;;;;;;;;5002400;28;20061;-62
2021/12/25 07:49:32;;;;;;;9.27;2.40;;;;;;;;;;5003743;28;20054;-62
2021/12/25 07:51:58;;;;;;;8.03;2.10;;;;;;;;;;5007482;28;20058;-63
2021/12/25 07:54:24;;;;;;;8.18;2.17;;;;;;;;;;5006587;28;20038;-63
2021/12/25 07:56:50;;;;;;;7.03;2.20;;;;;;;;;;5007405;28;20061;-64
2021/12/25 07:59:16;;;;;;;9.18;2.95;;;;;;;;;;5006353;28;20049;-62
2021/12/25 08:01:43;;;;;;;7.13;2.50;;;;;;;;;;4988903;28;20421;-63
2021/12/25 08:04:10;;;;;;;6.90;2.20;;;;;;;;;;5001535;28;20081;-63
2021/12/25 08:06:36;;;;;;;8.03;2.20;;;;;;;;;;4999018;28;20135;-63
2021/12/25 08:09:04;;;;;;;8.48;2.13;;;;;;;;;;4988362;28;20042;-63
2021/12/25 08:11:30;;;;;;;7.60;2.50;;;;;;;;;;5006860;28;20092;-62
2021/12/25 08:13:58;;;;;;;7.35;2.83;;;;;;;;;;4988412;28;20396;-63
2021/12/25 08:16:24;;;;;;;7.70;2.40;;;;;;;;;;5007833;28;20116;-62
2021/12/25 08:18:50;;;;;;;5.60;2.05;;;;;;;;;;5006714;28;20149;-62
2021/12/25 08:21:16;;;;;;;8.38;2.30;;;;;;;;;;5006700;28;20081;-61
2021/12/25 08:23:42;;;;;;;6.68;2.42;;;;;;;;;;5007466;28;20061;-63
2021/12/25 08:26:09;;;;;;;7.00;2.42;;;;;;;;;;5005798;28;20038;-60
2021/12/25 08:28:35;;;;;;;7.63;2.23;;;;;;;;;;5000929;28;20112;-63
2021/12/25 08:31:01;;;;;;;7.30;2.20;;;;;;;;;;5005235;28;20307;-63
2021/12/25 08:33:28;;;;;;;6.68;2.25;;;;;;;;;;5005896;28;20046;-62
2021/12/25 08:35:54;;;;;;;10.33;2.20;;;;;;;;;;5004757;28;20133;-63
2021/12/25 08:38:20;;;;;;;;;;;;;;;;;;5007107;28;20129;-64
2021/12/25 08:40:47;;;;;;;7.13;2.00;;;;;;;;;;4981686;28;19926;-64
2021/12/25 08:43:16;;;;;;;;;;;;;;;;;;4987187;28;20434;-62
2021/12/25 08:45:44;;;;;;;9.60;2.20;;;;;;;;;;5003227;28;19921;-62
2021/12/25 08:48:15;;;;;;;7.47;2.20;;;;;;;;;;5004891;28;20082;-61
2021/12/25 08:50:43;;;;;;;8.47;2.23;;;;;;;;;;5018795;28;20469;-62
2021/12/25 08:53:10;;;;;;;8.67;2.30;;;;;;;;;;4988049;28;20476;-62
2021/12/25 08:55:36;;;;;;;8.63;2.55;;;;;;;;;;5006145;28;20193;-63
2021/12/25 08:58:02;;;;;;;8.18;2.20;;;;;;;;;;5004696;28;20524;-62
2021/12/25 09:00:28;;;;;;;9.85;2.28;;;;;;;;;;5006269;28;20038;-62
2021/12/25 09:02:54;;;;;;;7.85;2.40;;;;;;;;;;4988423;28;20468;-62
2021/12/25 09:05:20;;;;;;;6.50;2.38;;;;;;;;;;5003638;28;20070;-62
2021/12/25 09:07:46;;;;;;;7.90;2.20;;;;;;;;;;5006361;28;20128;-62
2021/12/25 09:10:12;;;;;;;9.45;2.20;;;;;;;;;;5004954;28;20165;-62
2021/12/25 09:12:43;;;;;;;7.43;2.30;;;;;;;;;;4987662;28;20045;-62
2021/12/25 09:15:10;;;;;;;9.57;2.20;;;;;;;;;;5002936;28;20049;-62
2021/12/25 09:17:37;;;;;;;9.90;2.40;;;;;;;;;;5005807;28;20472;-62
2021/12/25 09:20:03;;;;;;;;;;;;;;;;;;5000016;28;20096;-62
2021/12/25 09:22:29;;;;;;;10.83;2.67;;;;;;;;;;5005858;28;20005;-62
2021/12/25 09:24:55;;;;;;;9.10;2.45;;;;;;;;;;5008101;28;20121;-62
2021/12/25 09:27:21;;;;;;;7.28;2.30;;;;;;;;;;4991523;28;20069;-62
2021/12/25 09:29:49;;;;;;;6.22;2.25;;;;;;;;;;5004270;28;20197;-62
2021/12/25 09:32:15;;;;;;;13.47;2.43;;;;;;;;;;4988436;28;20045;-63
2021/12/25 09:34:41;;;;;;;7.55;2.65;;;;;;;;;;5009548;28;20050;-63
2021/12/25 09:37:07;;;;;;;7.03;2.60;;;;;;;;;;5010698;28;20041;-63
2021/12/25 09:39:33;;;;;;;6.53;2.22;;;;;;;;;;5007917;28;20046;-62
2021/12/25 09:41:59;;;;;;;7.95;2.40;;;;;;;;;;5010257;28;20053;-62
2021/12/25 09:44:26;;;;;;;6.35;2.28;;;;;;;;;;5007711;28;20061;-62
2021/12/25 09:46:52;;;;;;;;;;;;;;;;;;5007264;28;20042;-63
2021/12/25 09:49:18;;;;;;;7.63;2.30;;;;;;;;;;5009334;28;19983;-63
2021/12/25 09:51:44;;;;;;;9.85;2.40;;;;;;;;;;5009732;28;20156;-62
2021/12/25 09:54:12;;;;;;;7.50;2.58;;;;;;;;;;5007962;28;20354;-62
2021/12/25 09:56:39;;;;;;;8.13;2.30;;;;;;;;;;4989985;28;20054;-62
2021/12/25 09:59:05;;;;;;;7.77;2.30;;;;;;;;;;4990735;28;20050;-63
2021/12/25 10:01:39;;;;;;;9.93;2.20;;;;;;;;;;5006859;28;20164;-63
2021/12/25 10:04:07;;;;;;;5.67;2.17;;;;;;;;;;5007679;28;20042;-63
2021/12/25 10:06:37;;;;;;;8.80;2.30;;;;;;;;;;5007957;28;20057;-64
2021/12/25 10:09:24;;;;;;;12.70;2.70;;;;;;;;;;5009933;28;20058;-64
2021/12/25 10:11:59;;;;;;;5.93;2.10;;;;;;;;;;5009383;28;20075;-64
2021/12/25 10:14:25;;;;;;;8.43;2.60;;;;;;;;;;5008010;28;20509;-64
2021/12/25 10:16:51;;;;;;;7.20;2.70;;;;;;;;;;5006206;28;20042;-64
2021/12/25 10:19:20;;;;;;;6.60;2.20;;;;;;;;;;5008155;28;20084;-64
2021/12/25 10:21:47;;;;;;;8.10;2.50;;;;;;;;;;5004752;28;20046;-64
2021/12/25 10:24:38;;;;;;;9.75;2.35;;;;;;;;;;5002715;28;20112;-63
2021/12/25 10:27:14;;;;;;;11.57;2.63;;;;;;;;;;5004630;28;20208;-62
2021/12/25 10:29:40;;;;;;;7.22;2.40;;;;;;;;;;4986611;28;20147;-66
2021/12/25 10:32:21;;;;;;;8.70;2.63;;;;;;;;;;5006014;28;20042;-66
2021/12/25 10:34:47;;;;;;;9.03;2.30;;;;;;;;;;5001098;28;20057;-64
2021/12/25 10:37:15;;;;;;;8.73;2.45;;;;;;;;;;4990901;28;20046;-64
2021/12/25 10:39:41;;;;;;;27.90;3.13;;;;;;;;;;5008673;28;20100;-64
2021/12/25 10:42:12;;;;;;;;;;;;;;;;;;5014063;28;20129;-65
2021/12/25 10:44:40;;;;;;;7.10;2.43;;;;;;;;;;5015972;28;19932;-65
2021/12/25 10:47:26;;;;;;;10.87;3.20;;;;;;;;;;4980444;28;20053;-64
2021/12/25 10:50:09;;;;;;;6.57;2.27;;;;;;;;;;5013915;28;20037;-63
2021/12/25 10:52:41;;;;;;;6.97;2.30;;;;;;;;;;5000014;28;20148;-62
2021/12/25 10:55:24;;;;;;;8.80;3.17;;;;;;;;;;4991156;28;20045;-64
2021/12/25 10:57:57;;;;;;;9.00;2.50;;;;;;;;;;4990898;28;20049;-63
2021/12/25 11:00:24;;;;;;;10.57;2.57;;;;;;;;;;5003277;28;20486;-64
2021/12/25 11:02:51;;;;;;;8.17;2.40;;;;;;;;;;5007915;28;20054;-64
2021/12/25 11:05:22;;;;;;;10.07;2.60;;;;;;;;;;4989985;28;20046;-63
2021/12/25 11:08:01;;;;;;;10.90;2.60;;;;;;;;;;5008068;28;20520;-63
2021/12/25 11:10:29;;;;;;;10.33;2.90;;;;;;;;;;5006495;28;20144;-64
2021/12/25 11:12:56;;;;;;;8.57;2.60;;;;;;;;;;5007623;28;20436;-64
2021/12/25 11:15:24;;;;;;;8.05;2.30;;;;;;;;;;4989156;28;20052;-65
2021/12/25 11:17:53;;;;;;;8.50;2.50;;;;;;;;;;5009109;28;20100;-64
2021/12/25 11:20:30;;;;;;;8.27;2.53;;;;;;;;;;5008146;28;20054;-64
2021/12/25 11:22:57;;;;;;;11.85;3.38;;;;;;;;;;5007565;28;20056;-63
2021/12/25 11:25:25;;;;;;;9.70;2.97;;;;;;;;;;5007165;28;20103;-65
2021/12/25 11:27:52;;;;;;;14.47;2.63;;;;;;;;;;4999311;28;20397;-62
2021/12/25 11:30:20;;;;;;;7.33;2.53;;;;;;;;;;5003357;28;20073;-63
2021/12/25 11:32:46;;;;;;;11.37;2.83;;;;;;;;;;5002624;28;20050;-62
2021/12/25 11:35:15;;;;;;;11.67;3.10;;;;;;;;;;5004261;28;20454;-64
2021/12/25 11:37:42;;;;;;;12.47;3.00;;;;;;;;;;5005144;28;20870;-63
2021/12/25 11:40:09;;;;;;;11.83;2.90;;;;;;;;;;4990962;28;20157;-63
2021/12/25 11:42:39;;;;;;;9.37;2.90;;;;;;;;;;5007766;28;20136;-63
2021/12/25 11:45:13;;;;;;;7.37;2.50;;;;;;;;;;5009199;28;20165;-64
2021/12/25 11:47:41;;;;;;;9.20;2.60;;;;;;;;;;5005554;28;20050;-63
2021/12/25 11:50:10;;;;;;;10.17;2.90;;;;;;;;;;4972460;28;20137;-64
2021/12/25 11:52:52;;;;;;;11.90;3.00;;;;;;;;;;5006237;28;20100;-63
2021/12/25 11:58:36;;;;;;;9.13;3.13;;;;;;;;;;4988453;28;20141;-63
2021/12/25 12:01:15;;;;;;;13.53;5.97;;;;;;;;;;4997729;28;20053;-64
2021/12/25 12:03:44;;;;;;;10.03;2.90;;;;;;;;;;5007095;28;20447;-65
2021/12/25 12:06:12;;;;;;;11.77;2.50;;;;;;;;;;5004698;28;20089;-64
2021/12/25 12:09:12;;;;;;;10.50;3.07;;;;;;;;;;4989571;28;20090;-66
2021/12/25 12:11:40;;;;;;;9.30;2.80;;;;;;;;;;4956357;28;20124;-65
2021/12/25 12:14:25;;;;;;;8.27;3.03;;;;;;;;;;5008993;28;20092;-64
2021/12/25 12:16:54;;;;;;;10.27;2.97;;;;;;;;;;4990459;28;20053;-66
2021/12/25 12:19:37;;;;;;;9.10;2.90;;;;;;;;;;4990454;28;20050;-64
2021/12/25 12:25:14;;;;;;;9.17;2.63;;;;;;;;;;4991298;28;20041;-64
2021/12/25 12:27:35;;;;;;;10.10;2.70;;;;;;;;;;5005482;28;20050;-64
2021/12/25 12:30:01;;;;;;;9.43;2.93;;;;;;;;;;5007908;28;20064;-64
2021/12/25 12:32:31;;;;;;;11.38;2.55;;;;;;;;;;5006196;28;20067;-65
2021/12/25 12:34:57;;;;;;;10.43;2.90;;;;;;;;;;4990094;28;20127;-65
2021/12/25 12:37:24;;;;;;;8.82;2.75;;;;;;;;;;5006755;28;20053;-65
2021/12/25 12:39:54;;;;;;;9.47;2.90;;;;;;;;;;4990133;28;20141;-64
2021/12/25 12:42:21;;;;;;;8.53;2.83;;;;;;;;;;5008486;28;20054;-65
2021/12/25 12:44:49;;;;;;;10.73;2.70;;;;;;;;;;5007258;28;20042;-64
2021/12/25 12:47:19;;;;;;;8.33;2.80;;;;;;;;;;4989072;28;20065;-66
2021/12/25 12:49:51;;;;;;;13.43;2.90;;;;;;;;;;5002603;28;20086;-64
2021/12/25 12:52:22;;;;;;;9.17;2.90;;;;;;;;;;4998223;28;20081;-66
2021/12/25 12:54:51;;;;;;;10.20;2.93;;;;;;;;;;5006055;28;20045;-64
2021/12/25 12:57:18;;;;;;;11.67;3.40;;;;;;;;;;5006321;28;20137;-65
2021/12/25 13:00:04;;;;;;;10.90;3.03;;;;;;;;;;5000448;28;20049;-65
2021/12/25 13:02:31;;;;;;;10.60;2.70;;;;;;;;;;5002806;28;20088;-65
2021/12/25 13:05:02;;;;;;;10.00;3.00;;;;;;;;;;5013199;28;20050;-64
2021/12/25 13:07:31;;;;;;;8.90;3.10;;;;;;;;;;4995753;28;20054;-66
2021/12/25 13:10:06;;;;;;;8.53;2.70;;;;;;;;;;5008787;28;20045;-66
2021/12/25 13:12:47;;;;;;;9.57;3.00;;;;;;;;;;5009157;28;20128;-66
2021/12/25 13:15:16;;;;;;;8.03;2.50;;;;;;;;;;4994355;28;20148;-65
2021/12/25 13:17:46;;;;;;;9.30;3.03;;;;;;;;;;5010131;28;20125;-67
2021/12/25 13:20:12;;;;;;;10.90;3.30;;;;;;;;;;5012345;28;20041;-66
2021/12/25 13:22:38;;;;;;;10.18;3.83;;;;;;;;;;4989425;28;20116;-65
2021/12/25 13:25:09;;;;;;;11.20;3.87;;;;;;;;;;4992281;28;20520;-65
2021/12/25 13:27:35;;;;;;;8.33;3.00;;;;;;;;;;5008168;28;20145;-67
2021/12/25 13:30:01;;;;;;;;;;;;;;;;;;5010100;28;20489;-68
2021/12/25 13:32:29;;;;;;;10.73;2.80;;;;;;;;;;5010996;28;19972;-66
2021/12/25 13:34:56;;;;;;;11.57;3.20;;;;;;;;;;4993203;28;20033;-67
2021/12/25 13:37:22;;;;;;;12.43;2.67;;;;;;;;;;5000967;28;20080;-67
2021/12/25 13:39:48;;;;;;;9.68;3.00;;;;;;;;;;5015293;28;20169;-66
2021/12/25 13:42:16;;;;;;;8.70;3.05;;;;;;;;;;5019534;28;20049;-66
2021/12/25 13:44:44;;;;;;;10.47;3.20;;;;;;;;;;5018387;28;22065;-67
2021/12/25 13:47:10;;;;;;;9.20;3.03;;;;;;;;;;5014625;28;20080;-67
2021/12/25 13:49:38;;;;;;;11.90;3.00;;;;;;;;;;5015577;28;20095;-66
2021/12/25 13:52:09;;;;;;;9.07;3.10;;;;;;;;;;5018252;28;20045;-66
2021/12/25 13:54:37;;;;;;;10.27;3.23;;;;;;;;;;5017179;28;20060;-65
2021/12/25 13:57:03;;;;;;;11.40;3.23;;;;;;;;;;5015233;28;20042;-65
2021/12/25 13:59:30;;;;;;;8.87;2.60;;;;;;;;;;5017177;28;20133;-66
2021/12/25 14:01:56;;;;;;;;;;;;;;;;;;4995006;28;20516;-66
2021/12/25 14:04:22;;;;;;;12.23;2.93;;;;;;;;;;5019557;28;19971;-64
2021/12/25 14:06:49;;;;;;;9.70;3.30;;;;;;;;;;5011190;28;20495;-64
2021/12/25 14:09:15;;;;;;;11.97;3.07;;;;;;;;;;4994977;28;20057;-64
2021/12/25 14:11:48;;;;;;;8.27;3.13;;;;;;;;;;5003795;28;20045;-63
2021/12/25 14:14:14;;;;;;;11.00;3.07;;;;;;;;;;5020762;28;20049;-65
2021/12/25 14:16:40;;;;;;;9.15;3.00;;;;;;;;;;5018483;28;20053;-65
2021/12/25 14:19:07;;;;;;;11.25;3.33;;;;;;;;;;4997036;28;20489;-64
2021/12/25 14:21:33;;;;;;;9.60;3.27;;;;;;;;;;5015973;28;20042;-64
2021/12/25 14:24:01;;;;;;;11.73;3.20;;;;;;;;;;4995642;28;20169;-65
2021/12/25 14:26:27;;;;;;;12.93;4.23;;;;;;;;;;5010638;28;20051;-63
2021/12/25 14:28:53;;;;;;;10.90;3.90;;;;;;;;;;5009196;28;20159;-64
2021/12/25 14:31:19;;;;;;;10.05;3.20;;;;;;;;;;5010413;28;20046;-64
2021/12/25 14:33:54;;;;;;;8.98;3.00;;;;;;;;;;5000733;28;20491;-64
2021/12/25 14:36:20;;;;;;;9.20;3.17;;;;;;;;;;4991088;28;20528;-65
2021/12/25 14:38:48;;;;;;;8.95;3.10;;;;;;;;;;4992022;28;20054;-64
2021/12/25 14:41:14;;;;;;;12.40;3.50;;;;;;;;;;5010432;28;20127;-63
2021/12/25 14:43:41;;;;;;;12.30;3.60;;;;;;;;;;5009590;28;20139;-63
2021/12/25 14:46:09;;;;;;;13.27;3.60;;;;;;;;;;4988614;28;20048;-66
2021/12/25 14:48:35;;;;;;;10.63;3.00;;;;;;;;;;5000960;28;20535;-64
2021/12/25 14:51:09;;;;;;;10.70;3.58;;;;;;;;;;4996355;28;20461;-64
2021/12/25 14:53:51;;;;;;;12.37;3.77;;;;;;;;;;5008962;28;20473;-64
2021/12/25 14:56:31;;;;;;;9.87;3.90;;;;;;;;;;5008964;28;20042;-65
2021/12/25 14:58:59;;;;;;;13.07;3.80;;;;;;;;;;5007173;28;20069;-65
2021/12/25 15:01:27;;;;;;;10.67;3.70;;;;;;;;;;5009849;28;20042;-66
2021/12/25 15:04:20;;;;;;;10.57;3.67;;;;;;;;;;4990209;28;20495;-64
2021/12/25 15:06:51;;;;;;;14.60;4.67;;;;;;;;;;5004971;28;20054;-64
2021/12/25 15:09:19;;;;;;;9.20;3.53;;;;;;;;;;5010676;28;20053;-66
2021/12/25 15:11:53;;;;;;;11.27;3.83;;;;;;;;;;4999865;28;20046;-66
2021/12/25 15:14:24;;;;;;;14.53;4.40;;;;;;;;;;4991691;28;20050;-65
2021/12/25 15:16:52;;;;;;;12.03;3.93;;;;;;;;;;4979957;28;20132;-65
2021/12/25 15:19:22;;;;;;;10.53;4.17;;;;;;;;;;4974608;28;20072;-66
2021/12/25 15:21:48;;;;;;;11.67;4.10;;;;;;;;;;4970829;28;20703;-66
2021/12/25 15:24:16;;;;;;;;;;;;;;;;;;4998642;28;20042;-64
2021/12/25 15:26:44;;;;;;;16.00;4.80;;;;;;;;;;5023604;28;19921;-65
2021/12/25 15:29:11;;;;;;;12.37;5.00;;;;;;;;;;5017466;28;20075;-64
2021/12/25 15:31:37;;;;;;;13.37;5.20;;;;;;;;;;5017460;28;20053;-65
2021/12/25 15:34:03;;;;;;;;;;;;;;;;;;5012841;28;20049;-66
2021/12/25 15:36:33;;;;;;;17.27;6.33;;;;;;;;;;5012527;28;20316;-65
2021/12/25 15:39:08;;;;;;;13.33;5.53;;;;;;;;;;5011088;28;20121;-65
2021/12/25 15:41:34;;;;;;;15.83;5.67;;;;;;;;;;5008016;28;20442;-64
2021/12/25 15:44:01;;;;;;;16.15;6.22;;;;;;;;;;4992161;28;20057;-64
2021/12/25 15:46:27;;;;;;;16.73;5.95;;;;;;;;;;5010315;28;20042;-64
2021/12/25 15:48:53;;;;;;;15.70;6.53;;;;;;;;;;5011978;28;20096;-65
2021/12/25 15:51:20;;;;;;;13.02;5.75;;;;;;;;;;5016658;28;20065;-64
2021/12/25 15:53:46;;;;;;;13.60;5.40;;;;;;;;;;5008438;28;20056;-65
2021/12/25 15:56:12;;;;;;;15.13;5.38;;;;;;;;;;5010294;28;20046;-64
2021/12/25 15:58:38;;;;;;;13.23;6.05;;;;;;;;;;5001619;28;20077;-64
2021/12/25 16:01:05;;;;;;;15.18;5.88;;;;;;;;;;4992380;28;20120;-63
2021/12/25 16:03:33;;;;;;;14.70;6.50;;;;;;;;;;4977156;28;20073;-64